sensor_id;sensor_type;location;lat;lon;timestamp;temperature;humidity
10828;DHT22;5467;59.334;13.512;2023-04-06T00:01:20;1.10;99.90
10828;DHT22;5467;59.334;13.512;2023-04-06T00:03:47;1.10;99.90
10828;DHT22;5467;59.334;13.512;2023-04-06T00:06:14;1.10;99.90
10828;DHT22;5467;59.334;13.512;2023-04-06T00:08:42;1.00;99.90
10828;DHT22;5467;59.334;13.512;2023-04-06T00:11:10;1.00;99.90
10828;DHT22;5467;59.334;13.512;2023-04-06T00:13:37;1.00;99.90
10828;DHT22;5467;59.334;13.512;2023-04-06T00:16:05;1.00;99.90
10828;DHT22;5467;59.334;13.512;2023-04-06T00:18:34;1.10;99.90
10828;DHT22;5467;59.334;13.512;2023-04-06T00:21:01;1.00;99.90
10828;DHT22;5467;59.334;13.512;2023-04-06T00:23:28;1.00;99.90
10828;DHT22;5467;59.334;13.512;2023-04-06T00:25:56;1.00;99.90
10828;DHT22;5467;59.334;13.512;2023-04-06T00:28:23;1.00;99.90
10828;DHT22;5467;59.334;13.512;2023-04-06T00:30:51;1.00;99.90
10828;DHT22;5467;59.334;13.512;2023-04-06T00:33:21;1.00;99.90
10828;DHT22;5467;59.334;13.512;2023-04-06T00:35:50;1.00;99.90
10828;DHT22;5467;59.334;13.512;2023-04-06T00:38:18;1.00;99.90
10828;DHT22;5467;59.334;13.512;2023-04-06T00:40:45;1.00;99.90
10828;DHT22;5467;59.334;13.512;2023-04-06T00:43:14;1.10;99.90
10828;DHT22;5467;59.334;13.512;2023-04-06T00:45:41;1.00;99.90
10828;DHT22;5467;59.334;13.512;2023-04-06T00:48:09;1.00;99.90
10828;DHT22;5467;59.334;13.512;2023-04-06T00:50:36;1.00;99.90
10828;DHT22;5467;59.334;13.512;2023-04-06T00:53:05;1.00;99.90
10828;DHT22;5467;59.334;13.512;2023-04-06T00:55:32;1.00;99.90
10828;DHT22;5467;59.334;13.512;2023-04-06T00:58:01;1.00;99.90
10828;DHT22;5467;59.334;13.512;2023-04-06T01:00:29;0.90;99.90
10828;DHT22;5467;59.334;13.512;2023-04-06T01:02:57;0.90;99.90
10828;DHT22;5467;59.334;13.512;2023-04-06T01:05:24;0.90;99.90
10828;DHT22;5467;59.334;13.512;2023-04-06T01:07:51;0.90;99.90
10828;DHT22;5467;59.334;13.512;2023-04-06T01:10:27;0.90;99.90
10828;DHT22;5467;59.334;13.512;2023-04-06T01:12:55;1.00;99.90
10828;DHT22;5467;59.334;13.512;2023-04-06T01:15:22;1.00;99.90
10828;DHT22;5467;59.334;13.512;2023-04-06T01:17:50;1.00;99.90
10828;DHT22;5467;59.334;13.512;2023-04-06T01:20:17;1.00;99.90
10828;DHT22;5467;59.334;13.512;2023-04-06T01:22:46;1.00;99.90
10828;DHT22;5467;59.334;13.512;2023-04-06T01:25:13;1.00;99.90
10828;DHT22;5467;59.334;13.512;2023-04-06T01:27:40;1.00;99.90
10828;DHT22;5467;59.334;13.512;2023-04-06T01:30:08;1.00;99.90
10828;DHT22;5467;59.334;13.512;2023-04-06T01:32:35;1.00;99.90
10828;DHT22;5467;59.334;13.512;2023-04-06T01:35:03;0.90;99.90
10828;DHT22;5467;59.334;13.512;2023-04-06T01:37:30;0.90;99.90
10828;DHT22;5467;59.334;13.512;2023-04-06T01:40:00;1.00;99.90
10828;DHT22;5467;59.334;13.512;2023-04-06T01:42:27;1.00;99.90
10828;DHT22;5467;59.334;13.512;2023-04-06T01:44:55;1.00;99.90
10828;DHT22;5467;59.334;13.512;2023-04-06T01:47:23;1.00;99.90
10828;DHT22;5467;59.334;13.512;2023-04-06T01:49:50;1.00;99.90
10828;DHT22;5467;59.334;13.512;2023-04-06T01:52:17;1.00;99.90
10828;DHT22;5467;59.334;13.512;2023-04-06T01:54:44;1.00;99.90
10828;DHT22;5467;59.334;13.512;2023-04-06T01:57:13;1.00;99.90
10828;DHT22;5467;59.334;13.512;2023-04-06T01:59:40;1.00;99.90
10828;DHT22;5467;59.334;13.512;2023-04-06T02:02:07;1.10;99.90
10828;DHT22;5467;59.334;13.512;2023-04-06T02:04:34;1.00;99.90
10828;DHT22;5467;59.334;13.512;2023-04-06T02:07:02;1.00;99.90
10828;DHT22;5467;59.334;13.512;2023-04-06T02:09:29;1.00;99.90
10828;DHT22;5467;59.334;13.512;2023-04-06T02:11:56;1.00;99.90
10828;DHT22;5467;59.334;13.512;2023-04-06T02:14:25;1.00;99.90
10828;DHT22;5467;59.334;13.512;2023-04-06T02:16:53;1.00;99.90
10828;DHT22;5467;59.334;13.512;2023-04-06T02:19:20;1.00;99.90
10828;DHT22;5467;59.334;13.512;2023-04-06T02:21:48;1.00;99.90
10828;DHT22;5467;59.334;13.512;2023-04-06T02:24:15;1.00;99.90
10828;DHT22;5467;59.334;13.512;2023-04-06T02:26:42;1.00;99.90
10828;DHT22;5467;59.334;13.512;2023-04-06T02:29:09;0.90;99.90
10828;DHT22;5467;59.334;13.512;2023-04-06T02:31:38;1.00;99.90
10828;DHT22;5467;59.334;13.512;2023-04-06T02:34:05;1.00;99.90
10828;DHT22;5467;59.334;13.512;2023-04-06T02:36:32;1.00;99.90
10828;DHT22;5467;59.334;13.512;2023-04-06T02:39:00;1.10;99.90
10828;DHT22;5467;59.334;13.512;2023-04-06T02:41:27;1.10;99.90
10828;DHT22;5467;59.334;13.512;2023-04-06T02:43:54;1.00;99.90
10828;DHT22;5467;59.334;13.512;2023-04-06T02:46:22;1.00;99.90
10828;DHT22;5467;59.334;13.512;2023-04-06T02:48:50;1.00;99.90
10828;DHT22;5467;59.334;13.512;2023-04-06T02:51:17;1.00;99.90
10828;DHT22;5467;59.334;13.512;2023-04-06T02:53:45;1.00;99.90
10828;DHT22;5467;59.334;13.512;2023-04-06T02:56:12;1.00;99.90
10828;DHT22;5467;59.334;13.512;2023-04-06T02:58:39;1.00;99.90
10828;DHT22;5467;59.334;13.512;2023-04-06T03:01:06;1.00;99.90
10828;DHT22;5467;59.334;13.512;2023-04-06T03:03:33;1.00;99.90
10828;DHT22;5467;59.334;13.512;2023-04-06T03:06:02;1.00;99.90
10828;DHT22;5467;59.334;13.512;2023-04-06T03:08:30;1.00;99.90
10828;DHT22;5467;59.334;13.512;2023-04-06T03:10:57;1.00;99.90
10828;DHT22;5467;59.334;13.512;2023-04-06T03:13:24;1.00;99.90
10828;DHT22;5467;59.334;13.512;2023-04-06T03:15:52;1.10;99.90
10828;DHT22;5467;59.334;13.512;2023-04-06T03:18:22;1.00;99.90
10828;DHT22;5467;59.334;13.512;2023-04-06T03:20:49;1.00;99.90
10828;DHT22;5467;59.334;13.512;2023-04-06T03:23:20;0.90;99.90
10828;DHT22;5467;59.334;13.512;2023-04-06T03:25:48;1.00;99.90
10828;DHT22;5467;59.334;13.512;2023-04-06T03:28:15;1.00;99.90
10828;DHT22;5467;59.334;13.512;2023-04-06T03:30:42;0.90;99.90
10828;DHT22;5467;59.334;13.512;2023-04-06T03:33:09;1.00;99.90
10828;DHT22;5467;59.334;13.512;2023-04-06T03:35:36;1.00;99.90
10828;DHT22;5467;59.334;13.512;2023-04-06T03:38:04;1.00;99.90
10828;DHT22;5467;59.334;13.512;2023-04-06T03:40:32;1.00;99.90
10828;DHT22;5467;59.334;13.512;2023-04-06T03:42:59;1.00;99.90
10828;DHT22;5467;59.334;13.512;2023-04-06T03:45:27;1.00;99.90
10828;DHT22;5467;59.334;13.512;2023-04-06T03:47:54;1.00;99.90
10828;DHT22;5467;59.334;13.512;2023-04-06T03:50:21;1.00;99.90
10828;DHT22;5467;59.334;13.512;2023-04-06T03:52:48;1.00;99.90
10828;DHT22;5467;59.334;13.512;2023-04-06T03:55:16;1.00;99.90
10828;DHT22;5467;59.334;13.512;2023-04-06T03:57:44;1.00;99.90
10828;DHT22;5467;59.334;13.512;2023-04-06T04:00:12;1.10;99.90
10828;DHT22;5467;59.334;13.512;2023-04-06T04:02:40;1.10;99.90
10828;DHT22;5467;59.334;13.512;2023-04-06T04:05:08;1.10;99.90
10828;DHT22;5467;59.334;13.512;2023-04-06T04:07:35;1.00;99.90
10828;DHT22;5467;59.334;13.512;2023-04-06T04:10:03;1.10;99.90
10828;DHT22;5467;59.334;13.512;2023-04-06T04:12:30;1.00;99.90
10828;DHT22;5467;59.334;13.512;2023-04-06T04:14:59;1.00;99.90
10828;DHT22;5467;59.334;13.512;2023-04-06T04:17:26;1.00;99.90
10828;DHT22;5467;59.334;13.512;2023-04-06T04:19:53;1.00;99.90
10828;DHT22;5467;59.334;13.512;2023-04-06T04:22:21;1.00;99.90
10828;DHT22;5467;59.334;13.512;2023-04-06T04:24:48;1.00;99.90
10828;DHT22;5467;59.334;13.512;2023-04-06T04:27:15;0.90;99.90
10828;DHT22;5467;59.334;13.512;2023-04-06T04:29:42;0.80;99.90
10828;DHT22;5467;59.334;13.512;2023-04-06T04:32:11;0.70;99.90
10828;DHT22;5467;59.334;13.512;2023-04-06T04:34:39;0.70;99.90
10828;DHT22;5467;59.334;13.512;2023-04-06T04:37:06;0.80;99.90
10828;DHT22;5467;59.334;13.512;2023-04-06T04:39:33;0.80;99.90
10828;DHT22;5467;59.334;13.512;2023-04-06T04:42:01;0.80;99.90
10828;DHT22;5467;59.334;13.512;2023-04-06T04:44:28;0.80;99.90
10828;DHT22;5467;59.334;13.512;2023-04-06T04:46:55;0.80;99.90
10828;DHT22;5467;59.334;13.512;2023-04-06T04:49:24;0.90;99.90
10828;DHT22;5467;59.334;13.512;2023-04-06T04:51:51;0.80;99.90
10828;DHT22;5467;59.334;13.512;2023-04-06T04:54:18;0.80;99.90
10828;DHT22;5467;59.334;13.512;2023-04-06T04:56:45;0.90;99.90
10828;DHT22;5467;59.334;13.512;2023-04-06T04:59:13;1.00;99.90
10828;DHT22;5467;59.334;13.512;2023-04-06T05:01:40;1.00;99.90
10828;DHT22;5467;59.334;13.512;2023-04-06T05:04:07;1.00;99.90
10828;DHT22;5467;59.334;13.512;2023-04-06T05:06:36;1.00;99.90
10828;DHT22;5467;59.334;13.512;2023-04-06T05:09:03;1.00;99.90
10828;DHT22;5467;59.334;13.512;2023-04-06T05:11:30;1.00;99.90
10828;DHT22;5467;59.334;13.512;2023-04-06T05:13:58;1.00;99.90
10828;DHT22;5467;59.334;13.512;2023-04-06T05:16:26;1.00;99.90
10828;DHT22;5467;59.334;13.512;2023-04-06T05:18:53;1.00;99.90
10828;DHT22;5467;59.334;13.512;2023-04-06T05:21:22;1.10;99.90
10828;DHT22;5467;59.334;13.512;2023-04-06T05:23:51;1.00;99.90
10828;DHT22;5467;59.334;13.512;2023-04-06T05:26:18;1.10;99.90
10828;DHT22;5467;59.334;13.512;2023-04-06T05:28:45;1.10;99.90
10828;DHT22;5467;59.334;13.512;2023-04-06T05:31:12;1.10;99.90
10828;DHT22;5467;59.334;13.512;2023-04-06T05:33:40;1.10;99.90
10828;DHT22;5467;59.334;13.512;2023-04-06T05:36:08;1.00;99.90
10828;DHT22;5467;59.334;13.512;2023-04-06T05:38:35;1.10;99.90
10828;DHT22;5467;59.334;13.512;2023-04-06T05:41:04;1.00;99.90
10828;DHT22;5467;59.334;13.512;2023-04-06T05:43:31;1.10;99.90
10828;DHT22;5467;59.334;13.512;2023-04-06T05:45:59;1.10;99.90
10828;DHT22;5467;59.334;13.512;2023-04-06T05:48:26;1.10;99.90
10828;DHT22;5467;59.334;13.512;2023-04-06T05:50:53;1.10;99.90
10828;DHT22;5467;59.334;13.512;2023-04-06T05:53:20;1.10;99.90
10828;DHT22;5467;59.334;13.512;2023-04-06T05:55:48;1.10;99.90
10828;DHT22;5467;59.334;13.512;2023-04-06T05:58:17;1.10;99.90
10828;DHT22;5467;59.334;13.512;2023-04-06T06:00:44;1.10;99.90
10828;DHT22;5467;59.334;13.512;2023-04-06T06:03:12;1.10;99.90
10828;DHT22;5467;59.334;13.512;2023-04-06T06:05:40;1.10;99.90
10828;DHT22;5467;59.334;13.512;2023-04-06T06:08:08;1.10;99.90
10828;DHT22;5467;59.334;13.512;2023-04-06T06:10:35;1.10;99.90
10828;DHT22;5467;59.334;13.512;2023-04-06T06:13:04;1.10;99.90
10828;DHT22;5467;59.334;13.512;2023-04-06T06:15:33;1.10;99.90
10828;DHT22;5467;59.334;13.512;2023-04-06T06:18:01;1.00;99.90
10828;DHT22;5467;59.334;13.512;2023-04-06T06:20:28;1.00;99.90
10828;DHT22;5467;59.334;13.512;2023-04-06T06:22:56;1.10;99.90
10828;DHT22;5467;59.334;13.512;2023-04-06T06:25:23;1.10;99.90
10828;DHT22;5467;59.334;13.512;2023-04-06T06:27:50;1.20;99.90
10828;DHT22;5467;59.334;13.512;2023-04-06T06:30:17;1.20;99.90
10828;DHT22;5467;59.334;13.512;2023-04-06T06:32:46;1.10;99.90
10828;DHT22;5467;59.334;13.512;2023-04-06T06:35:13;1.20;99.90
10828;DHT22;5467;59.334;13.512;2023-04-06T06:37:41;1.10;99.90
10828;DHT22;5467;59.334;13.512;2023-04-06T06:40:09;1.10;99.90
10828;DHT22;5467;59.334;13.512;2023-04-06T06:42:39;1.10;99.90
10828;DHT22;5467;59.334;13.512;2023-04-06T06:45:08;1.10;99.90
10828;DHT22;5467;59.334;13.512;2023-04-06T06:47:35;0.70;99.90
10828;DHT22;5467;59.334;13.512;2023-04-06T06:50:05;1.20;99.90
10828;DHT22;5467;59.334;13.512;2023-04-06T06:52:33;1.30;99.90
10828;DHT22;5467;59.334;13.512;2023-04-06T06:55:00;1.30;99.90
10828;DHT22;5467;59.334;13.512;2023-04-06T06:57:28;1.20;99.90
10828;DHT22;5467;59.334;13.512;2023-04-06T06:59:55;1.20;99.90
10828;DHT22;5467;59.334;13.512;2023-04-06T07:02:22;1.20;99.90
10828;DHT22;5467;59.334;13.512;2023-04-06T07:04:49;1.20;99.90
10828;DHT22;5467;59.334;13.512;2023-04-06T07:07:18;1.20;99.90
10828;DHT22;5467;59.334;13.512;2023-04-06T07:09:45;1.30;99.90
10828;DHT22;5467;59.334;13.512;2023-04-06T07:12:12;1.30;99.90
10828;DHT22;5467;59.334;13.512;2023-04-06T07:14:41;1.20;99.90
10828;DHT22;5467;59.334;13.512;2023-04-06T07:17:08;1.30;99.90
10828;DHT22;5467;59.334;13.512;2023-04-06T07:19:36;1.20;99.90
10828;DHT22;5467;59.334;13.512;2023-04-06T07:22:04;1.20;99.90
10828;DHT22;5467;59.334;13.512;2023-04-06T07:24:32;1.20;99.90
10828;DHT22;5467;59.334;13.512;2023-04-06T07:26:59;1.10;99.90
10828;DHT22;5467;59.334;13.512;2023-04-06T07:29:27;1.20;99.90
10828;DHT22;5467;59.334;13.512;2023-04-06T07:31:54;1.20;99.90
10828;DHT22;5467;59.334;13.512;2023-04-06T07:34:22;1.20;99.90
10828;DHT22;5467;59.334;13.512;2023-04-06T07:36:49;1.10;99.90
10828;DHT22;5467;59.334;13.512;2023-04-06T07:39:18;1.20;99.90
10828;DHT22;5467;59.334;13.512;2023-04-06T07:41:47;1.10;99.90
10828;DHT22;5467;59.334;13.512;2023-04-06T07:44:16;1.20;99.90
10828;DHT22;5467;59.334;13.512;2023-04-06T07:46:43;1.20;99.90
10828;DHT22;5467;59.334;13.512;2023-04-06T07:49:10;1.20;99.90
10828;DHT22;5467;59.334;13.512;2023-04-06T07:51:38;1.20;99.90
10828;DHT22;5467;59.334;13.512;2023-04-06T07:54:06;1.30;99.90
10828;DHT22;5467;59.334;13.512;2023-04-06T07:56:33;1.30;99.90
10828;DHT22;5467;59.334;13.512;2023-04-06T07:59:02;1.20;99.90
10828;DHT22;5467;59.334;13.512;2023-04-06T08:01:29;1.30;99.90
10828;DHT22;5467;59.334;13.512;2023-04-06T08:03:57;1.30;99.90
10828;DHT22;5467;59.334;13.512;2023-04-06T08:06:24;1.30;99.90
10828;DHT22;5467;59.334;13.512;2023-04-06T08:08:52;1.30;99.90
10828;DHT22;5467;59.334;13.512;2023-04-06T08:11:19;1.30;99.90
10828;DHT22;5467;59.334;13.512;2023-04-06T08:13:47;1.30;99.90
10828;DHT22;5467;59.334;13.512;2023-04-06T08:16:15;1.20;99.90
10828;DHT22;5467;59.334;13.512;2023-04-06T08:18:42;1.20;99.90
10828;DHT22;5467;59.334;13.512;2023-04-06T08:21:10;1.20;99.90
10828;DHT22;5467;59.334;13.512;2023-04-06T08:23:37;1.20;99.90
10828;DHT22;5467;59.334;13.512;2023-04-06T08:26:05;1.20;99.90
10828;DHT22;5467;59.334;13.512;2023-04-06T08:28:32;1.30;99.90
10828;DHT22;5467;59.334;13.512;2023-04-06T08:31:03;1.30;99.90
10828;DHT22;5467;59.334;13.512;2023-04-06T08:33:32;1.40;99.90
10828;DHT22;5467;59.334;13.512;2023-04-06T08:36:07;1.40;99.90
10828;DHT22;5467;59.334;13.512;2023-04-06T08:38:35;1.40;99.90
10828;DHT22;5467;59.334;13.512;2023-04-06T08:41:07;1.50;99.90
10828;DHT22;5467;59.334;13.512;2023-04-06T08:43:42;1.50;99.90
10828;DHT22;5467;59.334;13.512;2023-04-06T08:46:13;1.50;99.90
10828;DHT22;5467;59.334;13.512;2023-04-06T08:48:43;1.50;99.90
10828;DHT22;5467;59.334;13.512;2023-04-06T08:51:11;1.50;99.90
10828;DHT22;5467;59.334;13.512;2023-04-06T08:53:39;1.60;99.90
10828;DHT22;5467;59.334;13.512;2023-04-06T08:56:07;1.70;99.90
10828;DHT22;5467;59.334;13.512;2023-04-06T08:58:38;1.60;99.90
10828;DHT22;5467;59.334;13.512;2023-04-06T09:01:08;1.60;99.90
10828;DHT22;5467;59.334;13.512;2023-04-06T09:03:39;1.60;99.90
10828;DHT22;5467;59.334;13.512;2023-04-06T09:06:08;1.70;99.90
10828;DHT22;5467;59.334;13.512;2023-04-06T09:08:39;1.90;99.90
10828;DHT22;5467;59.334;13.512;2023-04-06T09:11:07;2.00;99.90
10828;DHT22;5467;59.334;13.512;2023-04-06T09:13:45;1.80;99.90
10828;DHT22;5467;59.334;13.512;2023-04-06T09:16:12;1.80;99.90
10828;DHT22;5467;59.334;13.512;2023-04-06T09:18:40;1.90;99.90
10828;DHT22;5467;59.334;13.512;2023-04-06T09:21:09;1.90;99.90
10828;DHT22;5467;59.334;13.512;2023-04-06T09:23:37;1.90;99.90
10828;DHT22;5467;59.334;13.512;2023-04-06T09:26:08;1.80;99.90
10828;DHT22;5467;59.334;13.512;2023-04-06T09:28:43;1.90;99.90
10828;DHT22;5467;59.334;13.512;2023-04-06T09:31:11;1.80;99.90
10828;DHT22;5467;59.334;13.512;2023-04-06T09:33:40;1.90;99.90
10828;DHT22;5467;59.334;13.512;2023-04-06T09:36:09;2.00;99.90
10828;DHT22;5467;59.334;13.512;2023-04-06T09:38:52;2.00;99.90
10828;DHT22;5467;59.334;13.512;2023-04-06T09:41:22;2.00;99.90
10828;DHT22;5467;59.334;13.512;2023-04-06T09:43:50;2.70;99.90
10828;DHT22;5467;59.334;13.512;2023-04-06T09:46:17;2.00;99.90
10828;DHT22;5467;59.334;13.512;2023-04-06T09:48:48;2.10;99.90
10828;DHT22;5467;59.334;13.512;2023-04-06T09:51:18;2.10;99.90
10828;DHT22;5467;59.334;13.512;2023-04-06T09:53:50;2.00;99.90
10828;DHT22;5467;59.334;13.512;2023-04-06T09:56:23;2.10;99.90
10828;DHT22;5467;59.334;13.512;2023-04-06T09:58:56;2.10;99.90
10828;DHT22;5467;59.334;13.512;2023-04-06T10:01:30;2.20;99.90
10828;DHT22;5467;59.334;13.512;2023-04-06T10:04:07;2.10;99.90
10828;DHT22;5467;59.334;13.512;2023-04-06T10:06:39;2.10;99.90
10828;DHT22;5467;59.334;13.512;2023-04-06T10:09:07;2.10;99.90
10828;DHT22;5467;59.334;13.512;2023-04-06T10:11:35;2.30;99.90
10828;DHT22;5467;59.334;13.512;2023-04-06T10:14:02;2.30;99.90
10828;DHT22;5467;59.334;13.512;2023-04-06T10:16:30;2.30;99.90
10828;DHT22;5467;59.334;13.512;2023-04-06T10:19:12;2.40;99.90
10828;DHT22;5467;59.334;13.512;2023-04-06T10:21:42;2.50;99.90
10828;DHT22;5467;59.334;13.512;2023-04-06T10:24:11;2.70;99.90
10828;DHT22;5467;59.334;13.512;2023-04-06T10:26:39;2.80;99.90
10828;DHT22;5467;59.334;13.512;2023-04-06T10:29:06;2.70;99.90
10828;DHT22;5467;59.334;13.512;2023-04-06T10:31:40;2.70;99.90
10828;DHT22;5467;59.334;13.512;2023-04-06T10:34:08;2.70;99.90
10828;DHT22;5467;59.334;13.512;2023-04-06T10:36:36;2.80;99.90
10828;DHT22;5467;59.334;13.512;2023-04-06T10:39:06;2.70;99.90
10828;DHT22;5467;59.334;13.512;2023-04-06T10:41:33;2.80;99.90
10828;DHT22;5467;59.334;13.512;2023-04-06T10:44:02;2.80;99.90
10828;DHT22;5467;59.334;13.512;2023-04-06T10:46:30;2.90;99.90
10828;DHT22;5467;59.334;13.512;2023-04-06T10:48:58;2.90;99.90
10828;DHT22;5467;59.334;13.512;2023-04-06T10:51:38;2.90;99.90
10828;DHT22;5467;59.334;13.512;2023-04-06T10:54:07;3.00;99.90
10828;DHT22;5467;59.334;13.512;2023-04-06T10:56:37;3.10;99.90
10828;DHT22;5467;59.334;13.512;2023-04-06T10:59:06;3.10;99.90
10828;DHT22;5467;59.334;13.512;2023-04-06T11:01:34;3.10;99.90
10828;DHT22;5467;59.334;13.512;2023-04-06T11:04:01;3.20;99.90
10828;DHT22;5467;59.334;13.512;2023-04-06T11:06:30;3.30;99.90
10828;DHT22;5467;59.334;13.512;2023-04-06T11:08:58;3.20;99.90
10828;DHT22;5467;59.334;13.512;2023-04-06T11:11:27;3.20;99.90
10828;DHT22;5467;59.334;13.512;2023-04-06T11:13:55;3.20;99.90
10828;DHT22;5467;59.334;13.512;2023-04-06T11:16:24;3.30;99.90
10828;DHT22;5467;59.334;13.512;2023-04-06T11:18:53;3.30;99.90
10828;DHT22;5467;59.334;13.512;2023-04-06T11:21:32;3.30;99.90
10828;DHT22;5467;59.334;13.512;2023-04-06T11:24:09;3.30;99.90
10828;DHT22;5467;59.334;13.512;2023-04-06T11:26:42;3.30;99.90
10828;DHT22;5467;59.334;13.512;2023-04-06T11:29:10;3.30;99.90
10828;DHT22;5467;59.334;13.512;2023-04-06T11:31:39;3.30;99.90
10828;DHT22;5467;59.334;13.512;2023-04-06T11:34:11;3.50;99.90
10828;DHT22;5467;59.334;13.512;2023-04-06T11:36:41;3.30;99.90
10828;DHT22;5467;59.334;13.512;2023-04-06T11:39:09;3.20;99.90
10828;DHT22;5467;59.334;13.512;2023-04-06T11:41:38;3.20;99.90
10828;DHT22;5467;59.334;13.512;2023-04-06T11:44:06;3.30;99.90
10828;DHT22;5467;59.334;13.512;2023-04-06T11:46:33;3.40;99.90
10828;DHT22;5467;59.334;13.512;2023-04-06T11:49:01;3.30;99.90
10828;DHT22;5467;59.334;13.512;2023-04-06T11:51:29;3.30;99.90
10828;DHT22;5467;59.334;13.512;2023-04-06T11:53:56;3.40;99.90
10828;DHT22;5467;59.334;13.512;2023-04-06T11:56:25;3.40;99.90
10828;DHT22;5467;59.334;13.512;2023-04-06T11:58:54;3.50;99.90
10828;DHT22;5467;59.334;13.512;2023-04-06T12:01:22;3.70;99.90
10828;DHT22;5467;59.334;13.512;2023-04-06T12:03:49;3.70;99.90
10828;DHT22;5467;59.334;13.512;2023-04-06T12:06:17;3.50;99.90
10828;DHT22;5467;59.334;13.512;2023-04-06T12:08:45;3.50;99.90
10828;DHT22;5467;59.334;13.512;2023-04-06T12:11:12;3.70;99.90
10828;DHT22;5467;59.334;13.512;2023-04-06T12:13:39;3.70;99.90
10828;DHT22;5467;59.334;13.512;2023-04-06T12:16:09;3.60;99.90
10828;DHT22;5467;59.334;13.512;2023-04-06T12:18:36;3.60;99.90
10828;DHT22;5467;59.334;13.512;2023-04-06T12:21:03;3.60;99.90
10828;DHT22;5467;59.334;13.512;2023-04-06T12:23:31;3.60;99.90
10828;DHT22;5467;59.334;13.512;2023-04-06T12:25:59;3.60;99.90
10828;DHT22;5467;59.334;13.512;2023-04-06T12:28:27;3.70;99.90
10828;DHT22;5467;59.334;13.512;2023-04-06T12:30:55;3.60;99.90
10828;DHT22;5467;59.334;13.512;2023-04-06T12:33:23;3.60;99.90
10828;DHT22;5467;59.334;13.512;2023-04-06T12:35:51;3.70;99.90
10828;DHT22;5467;59.334;13.512;2023-04-06T12:38:18;3.60;99.90
10828;DHT22;5467;59.334;13.512;2023-04-06T12:40:46;3.60;99.90
10828;DHT22;5467;59.334;13.512;2023-04-06T12:43:13;3.70;99.90
10828;DHT22;5467;59.334;13.512;2023-04-06T12:45:40;3.80;99.90
10828;DHT22;5467;59.334;13.512;2023-04-06T12:48:08;3.80;99.90
10828;DHT22;5467;59.334;13.512;2023-04-06T12:50:36;3.60;99.90
10828;DHT22;5467;59.334;13.512;2023-04-06T12:53:04;3.70;99.90
10828;DHT22;5467;59.334;13.512;2023-04-06T12:55:31;3.70;99.90
10828;DHT22;5467;59.334;13.512;2023-04-06T12:58:01;3.70;99.90
10828;DHT22;5467;59.334;13.512;2023-04-06T13:00:28;3.70;99.90
10828;DHT22;5467;59.334;13.512;2023-04-06T13:02:56;3.90;99.90
10828;DHT22;5467;59.334;13.512;2023-04-06T13:05:23;3.70;99.90
10828;DHT22;5467;59.334;13.512;2023-04-06T13:07:52;3.60;99.90
10828;DHT22;5467;59.334;13.512;2023-04-06T13:10:19;3.70;99.90
10828;DHT22;5467;59.334;13.512;2023-04-06T13:12:46;3.80;99.90
10828;DHT22;5467;59.334;13.512;2023-04-06T13:15:14;3.80;99.90
10828;DHT22;5467;59.334;13.512;2023-04-06T13:17:41;3.90;99.90
10828;DHT22;5467;59.334;13.512;2023-04-06T13:20:09;3.90;99.90
10828;DHT22;5467;59.334;13.512;2023-04-06T13:22:36;3.70;99.90
10828;DHT22;5467;59.334;13.512;2023-04-06T13:25:05;3.70;99.90
10828;DHT22;5467;59.334;13.512;2023-04-06T13:27:33;3.70;99.90
10828;DHT22;5467;59.334;13.512;2023-04-06T13:30:01;3.60;99.90
10828;DHT22;5467;59.334;13.512;2023-04-06T13:32:29;3.50;99.90
10828;DHT22;5467;59.334;13.512;2023-04-06T13:34:56;3.70;99.90
10828;DHT22;5467;59.334;13.512;2023-04-06T13:37:24;3.80;99.90
10828;DHT22;5467;59.334;13.512;2023-04-06T13:39:51;3.70;99.90
10828;DHT22;5467;59.334;13.512;2023-04-06T13:42:20;3.70;99.90
10828;DHT22;5467;59.334;13.512;2023-04-06T13:44:47;4.00;99.90
10828;DHT22;5467;59.334;13.512;2023-04-06T13:47:16;4.00;99.90
10828;DHT22;5467;59.334;13.512;2023-04-06T13:49:43;4.00;99.90
10828;DHT22;5467;59.334;13.512;2023-04-06T13:52:11;4.10;99.90
10828;DHT22;5467;59.334;13.512;2023-04-06T13:54:38;4.00;99.90
10828;DHT22;5467;59.334;13.512;2023-04-06T13:57:05;4.00;99.90
10828;DHT22;5467;59.334;13.512;2023-04-06T13:59:35;4.10;99.90
10828;DHT22;5467;59.334;13.512;2023-04-06T14:02:03;4.10;99.90
10828;DHT22;5467;59.334;13.512;2023-04-06T14:04:30;4.10;99.90
10828;DHT22;5467;59.334;13.512;2023-04-06T14:06:58;4.20;99.90
10828;DHT22;5467;59.334;13.512;2023-04-06T14:09:25;4.30;99.90
10828;DHT22;5467;59.334;13.512;2023-04-06T14:11:53;4.30;99.90
10828;DHT22;5467;59.334;13.512;2023-04-06T14:14:20;4.30;99.90
10828;DHT22;5467;59.334;13.512;2023-04-06T14:16:49;4.40;99.90
10828;DHT22;5467;59.334;13.512;2023-04-06T14:19:17;4.40;99.90
10828;DHT22;5467;59.334;13.512;2023-04-06T14:21:45;4.40;99.90
10828;DHT22;5467;59.334;13.512;2023-04-06T14:24:12;4.30;99.90
10828;DHT22;5467;59.334;13.512;2023-04-06T14:26:40;4.20;99.90
10828;DHT22;5467;59.334;13.512;2023-04-06T14:29:08;4.30;99.90
10828;DHT22;5467;59.334;13.512;2023-04-06T14:31:36;4.40;99.90
10828;DHT22;5467;59.334;13.512;2023-04-06T14:34:04;4.40;99.90
10828;DHT22;5467;59.334;13.512;2023-04-06T14:36:32;4.40;99.90
10828;DHT22;5467;59.334;13.512;2023-04-06T14:39:03;4.50;99.90
10828;DHT22;5467;59.334;13.512;2023-04-06T14:41:32;4.30;99.90
10828;DHT22;5467;59.334;13.512;2023-04-06T14:43:59;4.40;99.90
10828;DHT22;5467;59.334;13.512;2023-04-06T14:46:27;4.40;99.90
10828;DHT22;5467;59.334;13.512;2023-04-06T14:48:54;4.40;99.90
10828;DHT22;5467;59.334;13.512;2023-04-06T14:51:26;4.30;99.90
10828;DHT22;5467;59.334;13.512;2023-04-06T14:53:53;4.60;99.90
10828;DHT22;5467;59.334;13.512;2023-04-06T14:56:21;4.70;99.90
10828;DHT22;5467;59.334;13.512;2023-04-06T14:58:48;4.60;99.90
10828;DHT22;5467;59.334;13.512;2023-04-06T15:01:17;4.80;99.90
10828;DHT22;5467;59.334;13.512;2023-04-06T15:03:45;4.80;99.90
10828;DHT22;5467;59.334;13.512;2023-04-06T15:06:13;4.70;99.90
10828;DHT22;5467;59.334;13.512;2023-04-06T15:08:43;4.70;99.90
10828;DHT22;5467;59.334;13.512;2023-04-06T15:11:11;4.60;99.90
10828;DHT22;5467;59.334;13.512;2023-04-06T15:13:39;4.50;99.90
10828;DHT22;5467;59.334;13.512;2023-04-06T15:16:08;4.50;99.90
10828;DHT22;5467;59.334;13.512;2023-04-06T15:18:38;4.50;99.90
10828;DHT22;5467;59.334;13.512;2023-04-06T15:21:06;4.40;99.90
10828;DHT22;5467;59.334;13.512;2023-04-06T15:23:33;4.30;99.90
10828;DHT22;5467;59.334;13.512;2023-04-06T15:26:02;4.30;99.90
10828;DHT22;5467;59.334;13.512;2023-04-06T15:28:29;4.30;99.90
10828;DHT22;5467;59.334;13.512;2023-04-06T15:30:56;4.30;99.90
10828;DHT22;5467;59.334;13.512;2023-04-06T15:33:24;4.30;99.90
10828;DHT22;5467;59.334;13.512;2023-04-06T15:35:52;4.30;99.90
10828;DHT22;5467;59.334;13.512;2023-04-06T15:38:19;4.40;99.90
10828;DHT22;5467;59.334;13.512;2023-04-06T15:40:48;4.50;99.90
10828;DHT22;5467;59.334;13.512;2023-04-06T15:43:17;4.60;99.90
10828;DHT22;5467;59.334;13.512;2023-04-06T15:45:44;4.60;99.90
10828;DHT22;5467;59.334;13.512;2023-04-06T15:48:12;4.70;99.90
10828;DHT22;5467;59.334;13.512;2023-04-06T15:50:39;4.50;99.90